Time;durP1;ratioP1;P1;durP2;ratioP2;P2;SDS_P1;SDS_P2;PMS_P1;PMS_P2;Temp;Humidity;BMP_temperature;BMP_pressure;BME280_temperature;BME280_humidity;BME280_pressure;Samples;Min_cycle;Max_cycle;Signal;HPM_P1;HPM_P2
2022/09/30 00:00:09;;;;;;;13.97;5.87;;;;;;;;;;6305847;22;20662;-87
2022/09/30 00:02:36;;;;;;;11.90;6.23;;;;;;;;;;6304986;22;20230;-88
2022/09/30 00:05:04;;;;;;;19.17;6.20;;;;;;;;;;6305678;22;20653;-88
2022/09/30 00:07:31;;;;;;;9.30;4.90;;;;;;;;;;6278310;22;20200;-88
2022/09/30 00:09:58;;;;;;;9.70;4.87;;;;;;;;;;6277959;22;20740;-88
2022/09/30 00:12:26;;;;;;;9.70;5.00;;;;;;;;;;6305028;22;20179;-87
2022/09/30 00:14:54;;;;;;;17.50;5.77;;;;;;;;;;6305092;22;20636;-88
2022/09/30 00:17:23;;;;;;;11.77;5.40;;;;;;;;;;6303721;22;20279;-88
2022/09/30 00:19:51;;;;;;;11.73;4.93;;;;;;;;;;6278038;22;20173;-87
2022/09/30 00:22:18;;;;;;;11.63;4.97;;;;;;;;;;6278685;22;20173;-86
2022/09/30 00:24:46;;;;;;;11.20;4.77;;;;;;;;;;6303802;22;20627;-87
2022/09/30 00:27:16;;;;;;;8.83;4.83;;;;;;;;;;6278900;22;20582;-87
2022/09/30 00:29:44;;;;;;;9.77;5.10;;;;;;;;;;6303984;22;20195;-88
2022/09/30 00:32:11;;;;;;;10.37;4.87;;;;;;;;;;6304611;22;20183;-87
2022/09/30 00:34:40;;;;;;;12.03;4.97;;;;;;;;;;6305632;22;20179;-87
2022/09/30 00:37:08;;;;;;;15.07;5.23;;;;;;;;;;6304529;22;20189;-87
2022/09/30 00:39:36;;;;;;;9.90;5.23;;;;;;;;;;6304551;22;20253;-87
2022/09/30 00:42:05;;;;;;;10.73;5.50;;;;;;;;;;6303596;22;20173;-87
2022/09/30 00:44:56;;;;;;;13.00;5.10;;;;;;;;;;6277281;22;20264;-87
2022/09/30 00:47:36;;;;;;;22.33;5.50;;;;;;;;;;6303887;22;20273;-87
2022/09/30 00:50:07;;;;;;;30.60;6.47;;;;;;;;;;6304869;22;20639;-87
2022/09/30 00:52:34;;;;;;;27.23;6.07;;;;;;;;;;6286926;22;20181;-87
2022/09/30 00:55:03;;;;;;;25.67;6.27;;;;;;;;;;6272597;22;20174;-87
2022/09/30 00:57:31;;;;;;;21.57;5.80;;;;;;;;;;6273085;22;20289;-87
2022/09/30 00:59:58;;;;;;;32.23;6.47;;;;;;;;;;6272692;22;20588;-88
2022/09/30 01:02:25;;;;;;;20.77;5.90;;;;;;;;;;6273261;22;20170;-88
2022/09/30 01:04:53;;;;;;;25.27;5.97;;;;;;;;;;6273492;22;20173;-87
2022/09/30 01:07:23;;;;;;;16.87;5.80;;;;;;;;;;6272846;22;20202;-86
2022/09/30 01:09:51;;;;;;;13.63;6.20;;;;;;;;;;6273074;22;20251;-88
2022/09/30 01:12:21;;;;;;;36.43;7.43;;;;;;;;;;6274293;22;20699;-88
2022/09/30 01:14:52;;;;;;;19.03;5.57;;;;;;;;;;6274503;22;20525;-89
2022/09/30 01:17:24;;;;;;;11.17;5.97;;;;;;;;;;6247279;22;20201;-88
2022/09/30 01:20:25;;;;;;;21.13;6.73;;;;;;;;;;6274878;22;20154;-88
2022/09/30 01:23:02;;;;;;;20.83;6.60;;;;;;;;;;6179723;23;20171;-88
2022/09/30 01:25:42;;;;;;;24.73;6.80;;;;;;;;;;6179665;23;20215;-88
2022/09/30 01:28:39;;;;;;;13.60;7.10;;;;;;;;;;6236110;22;20538;-88
2022/09/30 01:31:26;;;;;;;13.93;6.30;;;;;;;;;;6179949;23;20275;-88
2022/09/30 01:33:56;;;;;;;15.07;6.27;;;;;;;;;;6265976;22;20256;-89
2022/09/30 01:36:28;;;;;;;11.97;6.03;;;;;;;;;;6276110;22;20173;-88
2022/09/30 01:39:00;;;;;;;16.03;6.00;;;;;;;;;;6247001;22;20645;-89
2022/09/30 01:41:34;;;;;;;19.40;6.30;;;;;;;;;;6248882;22;20647;-88
2022/09/30 01:44:04;;;;;;;12.40;5.90;;;;;;;;;;6274539;22;20261;-88
2022/09/30 01:46:36;;;;;;;12.70;5.73;;;;;;;;;;6276187;22;20173;-88
2022/09/30 01:49:09;;;;;;;15.10;5.87;;;;;;;;;;6274966;22;20177;-87
2022/09/30 01:51:38;;;;;;;14.87;5.87;;;;;;;;;;6275392;22;20198;-88
2022/09/30 01:54:09;;;;;;;14.67;6.33;;;;;;;;;;6247336;22;20185;-88
2022/09/30 01:56:42;;;;;;;17.07;6.27;;;;;;;;;;6276034;22;20186;-88
2022/09/30 01:59:13;;;;;;;11.03;5.43;;;;;;;;;;6275790;22;20165;-88
2022/09/30 02:01:43;;;;;;;15.53;6.20;;;;;;;;;;6275558;22;20166;-88
2022/09/30 02:04:13;;;;;;;10.87;5.80;;;;;;;;;;6276180;22;20178;-88
2022/09/30 02:06:42;;;;;;;14.50;5.77;;;;;;;;;;6276334;22;20209;-88
2022/09/30 02:09:13;;;;;;;21.87;6.70;;;;;;;;;;6276135;22;20177;-88
2022/09/30 02:11:41;;;;;;;35.73;6.73;;;;;;;;;;6248252;22;20224;-89
2022/09/30 02:14:11;;;;;;;14.10;6.20;;;;;;;;;;6248599;22;20182;-89
2022/09/30 02:16:39;;;;;;;16.17;6.70;;;;;;;;;;6275567;22;20189;-88
2022/09/30 02:19:12;;;;;;;28.13;10.03;;;;;;;;;;6274436;22;20177;-87
2022/09/30 02:21:41;;;;;;;19.27;6.60;;;;;;;;;;6248164;22;20174;-88
2022/09/30 02:24:10;;;;;;;19.30;6.60;;;;;;;;;;6276078;22;20531;-88
2022/09/30 02:26:39;;;;;;;20.33;7.13;;;;;;;;;;6247525;22;20173;-88
2022/09/30 02:29:07;;;;;;;25.80;6.47;;;;;;;;;;6275060;22;20195;-88
2022/09/30 02:31:36;;;;;;;15.67;6.40;;;;;;;;;;6275836;22;20531;-88
2022/09/30 02:34:06;;;;;;;18.10;5.87;;;;;;;;;;6274238;22;20170;-87
2022/09/30 02:36:37;;;;;;;18.60;6.40;;;;;;;;;;6275666;22;20504;-88
2022/09/30 02:39:06;;;;;;;12.37;6.00;;;;;;;;;;6274421;22;20556;-88
2022/09/30 02:41:36;;;;;;;11.63;5.93;;;;;;;;;;6247713;22;20239;-88
2022/09/30 02:44:04;;;;;;;17.00;5.77;;;;;;;;;;6274349;22;20184;-88
2022/09/30 02:46:35;;;;;;;19.37;6.10;;;;;;;;;;6275932;22;20205;-88
2022/09/30 02:49:06;;;;;;;15.30;5.33;;;;;;;;;;6275601;22;20166;-88
2022/09/30 02:51:39;;;;;;;7.93;4.43;;;;;;;;;;6249202;22;20197;-88
2022/09/30 02:54:10;;;;;;;7.67;4.60;;;;;;;;;;6222507;22;20609;-88
2022/09/30 02:56:43;;;;;;;12.17;5.07;;;;;;;;;;6275664;22;20170;-88
2022/09/30 02:59:11;;;;;;;10.47;4.87;;;;;;;;;;6274332;22;20216;-88
2022/09/30 03:01:40;;;;;;;10.60;4.97;;;;;;;;;;6274192;22;20193;-88
2022/09/30 03:04:09;;;;;;;9.73;5.20;;;;;;;;;;6248714;22;20181;-88
2022/09/30 03:06:39;;;;;;;15.07;5.70;;;;;;;;;;6275087;22;20518;-88
2022/09/30 03:09:06;;;;;;;14.17;5.50;;;;;;;;;;6274073;22;20176;-88
2022/09/30 03:11:34;;;;;;;16.40;5.43;;;;;;;;;;6274827;22;20208;-88
2022/09/30 03:14:21;;;;;;;32.80;5.27;;;;;;;;;;6274197;22;20177;-88
2022/09/30 03:16:58;;;;;;;8.80;5.17;;;;;;;;;;6274110;22;20178;-88
2022/09/30 03:19:33;;;;;;;16.37;5.30;;;;;;;;;;6274583;22;20254;-88
2022/09/30 03:25:16;;;;;;;17.37;5.07;;;;;;;;;;6271282;22;20185;-88
2022/09/30 03:27:50;;;;;;;21.97;5.30;;;;;;;;;;6273898;22;20190;-88
2022/09/30 03:30:19;;;;;;;15.60;4.83;;;;;;;;;;6272982;22;20235;-87
2022/09/30 03:32:53;;;;;;;9.93;4.93;;;;;;;;;;6274122;22;20178;-87
2022/09/30 03:35:25;;;;;;;11.43;4.87;;;;;;;;;;6274603;22;20237;-86
2022/09/30 03:37:59;;;;;;;10.30;5.30;;;;;;;;;;6274641;22;20313;-87
2022/09/30 03:40:31;;;;;;;15.27;5.40;;;;;;;;;;6246267;22;20632;-87
2022/09/30 03:43:01;;;;;;;12.00;5.10;;;;;;;;;;6278783;22;20174;-88
2022/09/30 03:45:31;;;;;;;16.00;5.50;;;;;;;;;;6288202;22;20231;-87
2022/09/30 03:48:02;;;;;;;11.10;4.93;;;;;;;;;;6260498;22;20209;-88
2022/09/30 03:50:30;;;;;;;10.73;4.83;;;;;;;;;;6287657;22;20272;-88
2022/09/30 03:52:59;;;;;;;18.27;5.23;;;;;;;;;;6285806;22;20185;-88
2022/09/30 03:55:27;;;;;;;11.17;4.97;;;;;;;;;;6276915;22;20183;-88
2022/09/30 03:57:56;;;;;;;9.70;4.90;;;;;;;;;;6274810;22;20254;-88
2022/09/30 04:00:23;;;;;;;8.70;5.20;;;;;;;;;;6273574;22;20176;-87
2022/09/30 04:02:51;;;;;;;9.67;4.97;;;;;;;;;;6273645;22;20169;-87
2022/09/30 04:05:18;;;;;;;16.23;5.73;;;;;;;;;;6274989;22;20344;-88
2022/09/30 04:07:46;;;;;;;16.23;5.77;;;;;;;;;;6274728;22;20200;-89
2022/09/30 04:10:15;;;;;;;21.27;5.80;;;;;;;;;;6275395;22;20567;-88
2022/09/30 04:12:42;;;;;;;11.83;5.47;;;;;;;;;;6274157;22;20178;-88
2022/09/30 04:15:10;;;;;;;31.77;4.97;;;;;;;;;;6274485;22;20235;-88
2022/09/30 04:17:38;;;;;;;18.13;5.43;;;;;;;;;;6246068;22;20194;-88
2022/09/30 04:20:06;;;;;;;19.10;5.87;;;;;;;;;;6273749;22;20261;-87
2022/09/30 04:22:33;;;;;;;20.70;6.00;;;;;;;;;;6247073;22;20177;-86
2022/09/30 04:25:01;;;;;;;15.83;5.53;;;;;;;;;;6274413;22;20205;-87
2022/09/30 04:27:30;;;;;;;15.67;5.73;;;;;;;;;;6273258;22;20292;-87
2022/09/30 04:29:57;;;;;;;16.67;5.43;;;;;;;;;;6273644;22;20498;-87
2022/09/30 04:32:25;;;;;;;12.07;4.97;;;;;;;;;;6246359;22;20726;-87
2022/09/30 04:34:53;;;;;;;10.63;5.23;;;;;;;;;;6274335;22;20178;-87
2022/09/30 04:37:21;;;;;;;12.63;5.40;;;;;;;;;;6274779;22;20202;-88
2022/09/30 04:39:48;;;;;;;10.23;4.57;;;;;;;;;;6274364;22;20223;-88
2022/09/30 04:42:17;;;;;;;16.37;5.40;;;;;;;;;;6273851;22;20562;-88
2022/09/30 04:44:46;;;;;;;17.70;6.47;;;;;;;;;;6274260;22;20574;-88
2022/09/30 04:47:14;;;;;;;11.43;4.77;;;;;;;;;;6273623;22;20194;-88
2022/09/30 04:49:41;;;;;;;19.07;6.20;;;;;;;;;;6274193;22;20173;-88
2022/09/30 04:52:09;;;;;;;16.53;5.13;;;;;;;;;;6273524;22;20201;-87
2022/09/30 04:54:36;;;;;;;12.17;4.70;;;;;;;;;;6274586;22;20496;-87
2022/09/30 04:57:04;;;;;;;8.37;4.40;;;;;;;;;;6273364;22;20204;-87
2022/09/30 04:59:32;;;;;;;10.30;4.37;;;;;;;;;;6274155;22;20178;-88
2022/09/30 05:02:02;;;;;;;8.50;4.27;;;;;;;;;;6273051;22;20523;-87
2022/09/30 05:04:32;;;;;;;22.80;5.00;;;;;;;;;;6274230;22;20513;-87
2022/09/30 05:07:00;;;;;;;19.07;4.90;;;;;;;;;;6273712;22;20746;-87
2022/09/30 05:09:28;;;;;;;17.83;4.37;;;;;;;;;;6249185;22;20205;-87
2022/09/30 05:11:55;;;;;;;12.33;4.57;;;;;;;;;;6274315;22;20192;-87
2022/09/30 05:14:22;;;;;;;8.30;4.30;;;;;;;;;;6248495;22;20174;-87
2022/09/30 05:16:49;;;;;;;11.93;4.80;;;;;;;;;;6248893;22;20598;-87
2022/09/30 05:19:18;;;;;;;10.03;4.67;;;;;;;;;;6276968;22;20174;-86
2022/09/30 05:21:46;;;;;;;14.40;4.70;;;;;;;;;;6248692;22;20219;-86
2022/09/30 05:24:13;;;;;;;14.93;5.70;;;;;;;;;;6275082;22;20201;-86
2022/09/30 05:26:40;;;;;;;18.20;5.43;;;;;;;;;;6275855;22;20252;-82
2022/09/30 05:29:07;;;;;;;12.23;4.87;;;;;;;;;;6276147;22;20181;-82
2022/09/30 05:31:34;;;;;;;12.30;4.77;;;;;;;;;;6273731;22;20528;-82
2022/09/30 05:34:03;;;;;;;18.07;5.93;;;;;;;;;;6271865;22;20632;-82
2022/09/30 05:36:31;;;;;;;9.60;4.67;;;;;;;;;;6273829;22;20173;-82
2022/09/30 05:38:59;;;;;;;12.87;5.20;;;;;;;;;;6274064;22;20169;-82
2022/09/30 05:41:26;;;;;;;10.10;4.50;;;;;;;;;;6246105;22;20191;-82
2022/09/30 05:43:53;;;;;;;10.43;4.40;;;;;;;;;;6274457;22;20268;-88
2022/09/30 05:49:33;;;;;;;15.53;5.30;;;;;;;;;;6272548;22;20659;-90
2022/09/30 05:52:02;;;;;;;16.27;4.73;;;;;;;;;;6274039;22;20194;-89
2022/09/30 05:54:30;;;;;;;9.20;4.60;;;;;;;;;;6223677;22;20173;-90
2022/09/30 05:56:57;;;;;;;15.90;4.90;;;;;;;;;;6248501;22;20197;-90
2022/09/30 05:59:25;;;;;;;16.70;4.97;;;;;;;;;;6275085;22;20178;-89
2022/09/30 06:01:52;;;;;;;15.80;5.13;;;;;;;;;;6274793;22;20172;-89
2022/09/30 06:04:20;;;;;;;8.63;4.20;;;;;;;;;;6274883;22;20173;-90
2022/09/30 06:06:47;;;;;;;9.83;4.63;;;;;;;;;;6275702;22;20192;-89
2022/09/30 06:09:16;;;;;;;8.33;4.47;;;;;;;;;;6273828;22;20565;-89
2022/09/30 06:11:44;;;;;;;11.10;5.10;;;;;;;;;;6247757;22;20217;-88
2022/09/30 06:14:11;;;;;;;11.07;4.93;;;;;;;;;;6248625;22;20209;-88
2022/09/30 06:16:39;;;;;;;8.47;4.47;;;;;;;;;;6222830;22;20177;-88
2022/09/30 06:19:06;;;;;;;15.77;4.50;;;;;;;;;;6274845;22;20581;-88
2022/09/30 06:21:33;;;;;;;16.37;4.97;;;;;;;;;;6275373;22;20186;-91
2022/09/30 06:24:01;;;;;;;11.83;4.67;;;;;;;;;;6274615;22;20260;-91
2022/09/30 06:26:30;;;;;;;15.27;5.17;;;;;;;;;;6247171;22;20189;-89
2022/09/30 06:28:57;;;;;;;15.00;5.13;;;;;;;;;;6272237;22;20273;-90
2022/09/30 06:31:25;;;;;;;14.17;5.20;;;;;;;;;;6273068;22;20193;-89
2022/09/30 06:33:53;;;;;;;10.90;5.27;;;;;;;;;;6273691;22;20174;-85
2022/09/30 06:36:20;;;;;;;39.30;6.07;;;;;;;;;;6274182;22;20207;-82
2022/09/30 06:38:50;;;;;;;9.67;4.90;;;;;;;;;;6273360;22;20203;-86
2022/09/30 06:41:17;;;;;;;9.43;5.40;;;;;;;;;;6275805;22;20192;-87
2022/09/30 06:43:46;;;;;;;16.23;4.97;;;;;;;;;;6274434;22;20183;-89
2022/09/30 06:46:13;;;;;;;11.50;5.00;;;;;;;;;;6274219;22;20178;-90
2022/09/30 06:48:41;;;;;;;10.37;4.60;;;;;;;;;;6273609;22;20224;-90
2022/09/30 06:51:09;;;;;;;10.60;5.53;;;;;;;;;;6274624;22;20240;-90
2022/09/30 06:53:38;;;;;;;27.27;6.27;;;;;;;;;;6278656;22;20181;-89
2022/09/30 06:56:05;;;;;;;12.10;5.70;;;;;;;;;;6306910;22;20256;-92
2022/09/30 06:58:32;;;;;;;13.00;6.30;;;;;;;;;;6279138;22;20279;-90
2022/09/30 07:01:02;;;;;;;11.57;5.93;;;;;;;;;;6303555;22;20173;-88
2022/09/30 07:03:31;;;;;;;10.90;5.93;;;;;;;;;;6303063;22;20177;-91
2022/09/30 07:05:59;;;;;;;9.13;5.10;;;;;;;;;;6306304;22;20234;-92
2022/09/30 07:08:30;;;;;;;9.37;5.57;;;;;;;;;;6306369;22;20203;-91
2022/09/30 07:10:57;;;;;;;22.27;6.20;;;;;;;;;;6278962;22;20173;-93
2022/09/30 07:13:25;;;;;;;12.27;5.87;;;;;;;;;;6304678;22;20185;-90
2022/09/30 07:15:53;;;;;;;14.57;4.90;;;;;;;;;;6253591;22;20177;-91
2022/09/30 07:18:21;;;;;;;10.73;5.33;;;;;;;;;;6304071;22;20200;-91
2022/09/30 07:20:49;;;;;;;13.17;4.90;;;;;;;;;;6305698;22;20177;-92
2022/09/30 07:23:17;;;;;;;10.90;4.63;;;;;;;;;;6302748;22;20169;-91
2022/09/30 07:25:52;;;;;;;9.87;5.10;;;;;;;;;;6303808;22;20173;-92
2022/09/30 07:28:19;;;;;;;12.97;4.57;;;;;;;;;;6304296;22;20271;-92
2022/09/30 07:30:47;;;;;;;10.40;4.93;;;;;;;;;;6303357;22;20181;-92
2022/09/30 07:33:15;;;;;;;6.33;4.00;;;;;;;;;;6304157;22;20193;-92
2022/09/30 07:35:51;;;;;;;6.33;3.90;;;;;;;;;;6301735;22;20252;-89
2022/09/30 07:38:19;;;;;;;9.27;4.40;;;;;;;;;;6276774;22;20538;-92
2022/09/30 07:40:57;;;;;;;7.73;4.00;;;;;;;;;;6278179;22;20180;-91
2022/09/30 07:43:24;;;;;;;9.50;4.03;;;;;;;;;;6303403;22;20173;-90
2022/09/30 07:45:54;;;;;;;8.57;3.87;;;;;;;;;;6303682;22;20549;-90
2022/09/30 07:51:09;;;;;;;8.00;4.47;;;;;;;;;;6302730;22;20160;-92
2022/09/30 07:53:37;;;;;;;7.73;4.20;;;;;;;;;;6275936;22;20204;-91
2022/09/30 07:56:11;;;;;;;8.07;4.47;;;;;;;;;;6278796;22;20177;-91
2022/09/30 07:58:39;;;;;;;9.43;4.13;;;;;;;;;;6298343;22;20189;-91
2022/09/30 08:01:23;;;;;;;8.97;3.90;;;;;;;;;;6301247;22;20205;-91
2022/09/30 08:03:53;;;;;;;5.80;2.70;;;;;;;;;;6300345;22;20184;-93
2022/09/30 08:06:22;;;;;;;5.03;3.30;;;;;;;;;;6276322;22;20188;-91
2022/09/30 08:08:53;;;;;;;6.20;3.10;;;;;;;;;;6301258;22;20197;-92
2022/09/30 08:11:22;;;;;;;6.07;3.17;;;;;;;;;;6275876;22;20181;-92
2022/09/30 08:13:52;;;;;;;3.67;2.67;;;;;;;;;;6302171;22;20181;-92
2022/09/30 08:16:19;;;;;;;5.90;3.37;;;;;;;;;;6305223;22;20177;-92
2022/09/30 08:18:46;;;;;;;6.17;2.70;;;;;;;;;;6250039;22;20201;-92
2022/09/30 08:21:14;;;;;;;5.27;3.17;;;;;;;;;;6302631;22;20184;-92
2022/09/30 08:23:43;;;;;;;8.70;2.67;;;;;;;;;;6305775;22;20169;-90
2022/09/30 08:26:11;;;;;;;9.77;2.80;;;;;;;;;;6304121;22;20176;-91
2022/09/30 08:28:39;;;;;;;7.40;3.57;;;;;;;;;;6276217;22;20258;-92
2022/09/30 08:31:06;;;;;;;8.07;3.20;;;;;;;;;;6303812;22;20173;-91
2022/09/30 08:33:34;;;;;;;7.13;3.50;;;;;;;;;;6305042;22;20203;-91
2022/09/30 08:36:05;;;;;;;12.80;3.53;;;;;;;;;;6302550;22;20176;-91
2022/09/30 08:38:32;;;;;;;8.73;3.33;;;;;;;;;;6302645;22;20196;-92
2022/09/30 08:41:06;;;;;;;5.70;3.50;;;;;;;;;;6304470;22;20177;-92
2022/09/30 08:43:39;;;;;;;10.67;4.17;;;;;;;;;;6308386;22;20172;-90
2022/09/30 08:46:09;;;;;;;7.77;4.00;;;;;;;;;;6277914;22;20183;-92
2022/09/30 08:48:41;;;;;;;7.73;4.00;;;;;;;;;;6305665;22;20197;-92
2022/09/30 08:53:38;;;;;;;6.67;4.00;;;;;;;;;;6258003;22;20241;-81
2022/09/30 08:56:09;;;;;;;6.90;4.40;;;;;;;;;;6244292;22;20404;-82
2022/09/30 08:58:38;;;;;;;10.10;4.60;;;;;;;;;;6271528;22;20197;-82
2022/09/30 09:01:09;;;;;;;6.53;4.03;;;;;;;;;;6275746;22;20165;-81
2022/09/30 09:03:39;;;;;;;6.93;3.97;;;;;;;;;;6269943;22;20239;-82
2022/09/30 09:06:18;;;;;;;6.03;3.80;;;;;;;;;;6242738;22;20177;-82
2022/09/30 09:08:55;;;;;;;8.47;4.47;;;;;;;;;;6270666;22;20200;-83
2022/09/30 09:11:33;;;;;;;7.47;3.97;;;;;;;;;;6271790;22;20181;-80
2022/09/30 09:14:04;;;;;;;9.30;3.80;;;;;;;;;;6271152;22;20665;-81
2022/09/30 09:16:33;;;;;;;6.67;4.03;;;;;;;;;;6242186;22;20180;-81
2022/09/30 09:19:04;;;;;;;8.63;4.20;;;;;;;;;;6272488;22;20184;-81
2022/09/30 09:21:38;;;;;;;9.87;4.03;;;;;;;;;;6269438;22;20173;-81
2022/09/30 09:24:11;;;;;;;6.40;3.90;;;;;;;;;;6268448;22;20174;-80
2022/09/30 09:26:40;;;;;;;8.03;4.13;;;;;;;;;;6241688;22;20177;-81
2022/09/30 09:29:16;;;;;;;8.03;4.03;;;;;;;;;;6269809;22;20170;-81
2022/09/30 09:31:43;;;;;;;6.97;3.90;;;;;;;;;;6269902;22;20193;-81
2022/09/30 09:34:12;;;;;;;5.70;3.87;;;;;;;;;;6244867;22;20220;-81
2022/09/30 09:36:45;;;;;;;6.83;3.97;;;;;;;;;;6242742;22;20323;-82
2022/09/30 09:39:22;;;;;;;6.47;3.77;;;;;;;;;;6270259;22;20201;-82
2022/09/30 09:41:53;;;;;;;7.13;4.50;;;;;;;;;;6268335;22;20162;-82
2022/09/30 09:44:25;;;;;;;8.17;3.77;;;;;;;;;;6271837;22;20177;-80
2022/09/30 09:46:55;;;;;;;9.23;3.90;;;;;;;;;;6270059;22;20225;-82
2022/09/30 09:49:33;;;;;;;13.30;3.53;;;;;;;;;;6243228;22;20211;-83
2022/09/30 09:52:13;;;;;;;8.73;4.17;;;;;;;;;;6269894;22;20204;-82
2022/09/30 09:54:41;;;;;;;9.20;3.47;;;;;;;;;;6302272;22;20261;-82
2022/09/30 09:57:13;;;;;;;10.40;3.23;;;;;;;;;;6303270;22;20189;-82
2022/09/30 09:59:57;;;;;;;8.20;3.40;;;;;;;;;;6304291;22;20274;-81
2022/09/30 10:02:28;;;;;;;9.97;3.07;;;;;;;;;;6301777;22;20172;-81
2022/09/30 10:05:02;;;;;;;6.00;3.20;;;;;;;;;;6304291;22;20226;-81
2022/09/30 10:07:30;;;;;;;7.00;2.87;;;;;;;;;;6300535;22;20193;-80
2022/09/30 10:10:17;;;;;;;6.13;3.23;;;;;;;;;;6301737;22;20234;-80
2022/09/30 10:12:47;;;;;;;6.27;2.47;;;;;;;;;;6296536;22;20373;-81
2022/09/30 10:15:25;;;;;;;6.43;2.80;;;;;;;;;;6302661;22;20173;-82
2022/09/30 10:18:00;;;;;;;5.70;3.00;;;;;;;;;;6302120;22;20189;-81
2022/09/30 10:20:30;;;;;;;4.63;2.73;;;;;;;;;;6277985;22;20249;-81
2022/09/30 10:23:09;;;;;;;5.57;2.30;;;;;;;;;;6309565;22;20176;-83
2022/09/30 10:25:36;;;;;;;5.80;2.50;;;;;;;;;;6309063;22;20165;-81
2022/09/30 10:28:21;;;;;;;7.50;2.73;;;;;;;;;;6306224;22;20342;-81
2022/09/30 10:34:04;;;;;;;4.83;1.90;;;;;;;;;;6303836;22;20219;-81
2022/09/30 10:36:33;;;;;;;3.57;2.10;;;;;;;;;;6306543;22;20199;-81
2022/09/30 10:39:04;;;;;;;6.00;2.47;;;;;;;;;;6303770;22;20177;-80
2022/09/30 10:42:03;;;;;;;;;;;;;;;;;;;;;
2022/09/30 10:44:47;;;;;;;4.23;2.27;;;;;;;;;;6276504;22;20181;-80
2022/09/30 10:47:16;;;;;;;7.90;2.10;;;;;;;;;;6302671;22;20509;-80
2022/09/30 10:49:47;;;;;;;3.83;2.03;;;;;;;;;;6301302;22;20687;-79
2022/09/30 10:52:18;;;;;;;6.50;2.17;;;;;;;;;;6304807;22;20195;-81
2022/09/30 10:54:52;;;;;;;7.97;1.50;;;;;;;;;;6273457;22;20193;-80
2022/09/30 10:57:33;;;;;;;3.17;1.90;;;;;;;;;;6272143;22;20208;-82
2022/09/30 11:00:05;;;;;;;4.50;1.77;;;;;;;;;;6243015;22;20204;-81
2022/09/30 11:02:35;;;;;;;5.47;1.70;;;;;;;;;;6272128;22;20166;-80
2022/09/30 11:05:07;;;;;;;9.07;2.00;;;;;;;;;;6273427;22;20197;-80
2022/09/30 11:07:40;;;;;;;3.93;1.90;;;;;;;;;;6272392;22;20255;-82
2022/09/30 11:10:09;;;;;;;2.80;1.83;;;;;;;;;;6242281;22;20256;-80
2022/09/30 11:12:41;;;;;;;3.73;1.90;;;;;;;;;;6243440;22;20178;-80
2022/09/30 11:15:13;;;;;;;5.47;1.50;;;;;;;;;;6272082;22;20186;-80
2022/09/30 11:17:44;;;;;;;4.93;1.60;;;;;;;;;;6267463;22;20280;-78
2022/09/30 11:20:17;;;;;;;4.90;1.53;;;;;;;;;;6270853;22;20173;-78
2022/09/30 11:25:31;;;;;;;1.63;0.67;;;;;;;;;;6236126;23;20193;-81
2022/09/30 11:28:14;;;;;;;4.03;0.80;;;;;;;;;;6242453;22;20272;-79
2022/09/30 11:30:47;;;;;;;0.87;0.70;;;;;;;;;;6267496;22;20188;-79
2022/09/30 11:33:22;;;;;;;2.37;0.77;;;;;;;;;;6241274;22;20202;-80
2022/09/30 11:35:57;;;;;;;2.60;0.70;;;;;;;;;;6239871;22;20683;-79
2022/09/30 11:38:45;;;;;;;1.67;0.90;;;;;;;;;;6242898;22;20243;-80
2022/09/30 11:41:18;;;;;;;3.10;0.87;;;;;;;;;;6261901;22;20180;-80
2022/09/30 11:43:49;;;;;;;1.90;0.97;;;;;;;;;;6268415;22;20174;-80
2022/09/30 11:46:33;;;;;;;3.13;1.00;;;;;;;;;;6269577;22;20177;-81
2022/09/30 11:49:10;;;;;;;3.40;1.00;;;;;;;;;;6268146;22;20597;-80
2022/09/30 11:51:41;;;;;;;2.20;0.80;;;;;;;;;;6269705;22;20240;-81
2022/09/30 11:54:17;;;;;;;2.77;0.80;;;;;;;;;;6265483;22;20228;-79
2022/09/30 11:56:51;;;;;;;1.50;0.93;;;;;;;;;;6269660;22;20208;-81
2022/09/30 11:59:22;;;;;;;4.07;1.23;;;;;;;;;;6267739;22;20162;-80
2022/09/30 12:01:53;;;;;;;2.93;1.00;;;;;;;;;;6238497;22;20629;-80
2022/09/30 12:04:23;;;;;;;2.47;0.93;;;;;;;;;;6266735;22;20189;-79
2022/09/30 12:06:50;;;;;;;1.90;0.70;;;;;;;;;;6268342;22;20201;-80
2022/09/30 12:09:21;;;;;;;5.30;0.80;;;;;;;;;;6301329;22;20196;-80
2022/09/30 12:11:51;;;;;;;3.00;0.70;;;;;;;;;;6274963;22;20181;-80
2022/09/30 12:14:21;;;;;;;2.30;0.83;;;;;;;;;;6301146;22;20193;-80
2022/09/30 12:16:50;;;;;;;2.60;0.60;;;;;;;;;;6303639;22;20176;-80
2022/09/30 12:19:28;;;;;;;4.17;0.80;;;;;;;;;;6304296;22;20173;-80
2022/09/30 12:21:58;;;;;;;2.87;1.17;;;;;;;;;;6273119;22;20157;-81
2022/09/30 12:24:30;;;;;;;3.80;1.10;;;;;;;;;;6301304;22;20236;-81
2022/09/30 12:26:57;;;;;;;3.57;1.47;;;;;;;;;;6309112;22;20199;-80
2022/09/30 12:32:21;;;;;;;2.40;1.00;;;;;;;;;;6300429;22;20161;-84
2022/09/30 12:35:00;;;;;;;3.87;1.20;;;;;;;;;;6302345;22;20184;-80
2022/09/30 12:37:44;;;;;;;1.33;0.93;;;;;;;;;;6300480;22;20201;-80
2022/09/30 12:40:21;;;;;;;2.57;0.90;;;;;;;;;;6302169;22;20165;-81
2022/09/30 12:43:12;;;;;;;2.37;1.00;;;;;;;;;;6273989;22;20180;-82
2022/09/30 12:45:56;;;;;;;5.07;1.10;;;;;;;;;;6303493;22;20158;-81
2022/09/30 12:48:31;;;;;;;4.90;1.70;;;;;;;;;;6275751;22;20418;-82
2022/09/30 12:51:01;;;;;;;3.73;1.60;;;;;;;;;;6301987;22;20179;-81
2022/09/30 12:53:38;;;;;;;3.93;1.50;;;;;;;;;;6304963;22;20196;-82
2022/09/30 12:56:20;;;;;;;3.73;1.73;;;;;;;;;;6303263;22;20670;-82
2022/09/30 12:58:49;;;;;;;3.90;1.70;;;;;;;;;;6308198;22;20250;-81
2022/09/30 13:01:23;;;;;;;4.73;1.53;;;;;;;;;;6310371;22;20173;-82
2022/09/30 13:03:52;;;;;;;5.17;1.70;;;;;;;;;;6305424;22;20157;-81
2022/09/30 13:06:24;;;;;;;1.53;0.97;;;;;;;;;;6302360;22;20173;-81
2022/09/30 13:09:18;;;;;;;4.33;1.60;;;;;;;;;;6273738;22;20201;-82
2022/09/30 13:11:47;;;;;;;5.97;1.70;;;;;;;;;;6270916;22;20158;-82
2022/09/30 13:14:21;;;;;;;2.57;1.47;;;;;;;;;;6243839;22;20208;-82
2022/09/30 13:17:16;;;;;;;4.07;1.67;;;;;;;;;;6271012;22;20185;-82
2022/09/30 13:19:45;;;;;;;2.60;1.80;;;;;;;;;;6180352;23;20179;-81
2022/09/30 13:22:31;;;;;;;5.90;2.30;;;;;;;;;;6188680;22;20254;-80
2022/09/30 13:25:12;;;;;;;1.77;1.17;;;;;;;;;;6267623;22;20166;-81
2022/09/30 13:27:40;;;;;;;1.83;1.20;;;;;;;;;;6270233;22;20276;-81
2022/09/30 13:30:23;;;;;;;3.67;1.20;;;;;;;;;;6270920;22;20184;-81
2022/09/30 13:33:06;;;;;;;3.10;1.23;;;;;;;;;;6268757;22;20234;-80
2022/09/30 13:38:44;;;;;;;4.03;1.60;;;;;;;;;;6208838;22;20205;-83
2022/09/30 13:41:19;;;;;;;3.63;1.40;;;;;;;;;;6270439;22;20203;-82
2022/09/30 13:43:50;;;;;;;2.50;1.40;;;;;;;;;;6244931;22;20173;-82
2022/09/30 13:46:31;;;;;;;1.97;1.00;;;;;;;;;;6245394;22;20178;-82
2022/09/30 13:49:01;;;;;;;1.80;1.20;;;;;;;;;;6272226;22;20170;-82
2022/09/30 13:51:32;;;;;;;1.87;1.13;;;;;;;;;;6243576;22;20181;-80
2022/09/30 13:54:11;;;;;;;2.73;1.10;;;;;;;;;;6238397;22;20270;-82
2022/09/30 13:56:44;;;;;;;3.03;1.20;;;;;;;;;;6242950;22;20177;-80
2022/09/30 13:59:45;;;;;;;4.03;1.53;;;;;;;;;;6270595;22;20637;-80
2022/09/30 14:02:32;;;;;;;3.53;1.40;;;;;;;;;;6260626;22;20189;-80
2022/09/30 14:05:14;;;;;;;4.43;1.20;;;;;;;;;;6273007;22;20191;-80
2022/09/30 14:07:50;;;;;;;1.90;0.90;;;;;;;;;;6272066;22;20224;-80
2022/09/30 14:10:32;;;;;;;4.47;1.27;;;;;;;;;;6269269;22;20173;-81
2022/09/30 14:13:17;;;;;;;4.60;1.27;;;;;;;;;;6267514;22;20406;-81
2022/09/30 14:15:55;;;;;;;1.90;1.00;;;;;;;;;;6271075;22;20174;-81
2022/09/30 14:18:36;;;;;;;4.40;1.50;;;;;;;;;;6244641;22;20204;-83
2022/09/30 14:21:24;;;;;;;3.50;1.30;;;;;;;;;;6271473;22;20173;-81
2022/09/30 14:23:57;;;;;;;3.50;1.93;;;;;;;;;;6270984;22;20158;-82
2022/09/30 14:29:19;;;;;;;4.83;1.30;;;;;;;;;;6262552;22;20182;-80
2022/09/30 14:31:48;;;;;;;1.77;1.30;;;;;;;;;;6274160;22;20173;-79
2022/09/30 14:34:16;;;;;;;4.90;1.23;;;;;;;;;;6274863;22;20194;-80
2022/09/30 14:39:44;;;;;;;2.70;1.30;;;;;;;;;;6245182;22;20236;-82
2022/09/30 14:42:14;;;;;;;3.27;1.20;;;;;;;;;;6245520;22;20268;-80
2022/09/30 14:44:46;;;;;;;3.33;1.20;;;;;;;;;;6247724;22;20170;-80
2022/09/30 14:47:18;;;;;;;3.30;1.30;;;;;;;;;;6270203;22;20221;-81
2022/09/30 14:49:45;;;;;;;1.57;1.07;;;;;;;;;;6269246;22;20256;-81
2022/09/30 14:52:30;;;;;;;2.53;1.17;;;;;;;;;;6268549;22;20304;-81
2022/09/30 14:57:42;;;;;;;2.27;1.30;;;;;;;;;;6257333;22;20216;-88
2022/09/30 15:00:28;;;;;;;2.33;1.43;;;;;;;;;;6274038;22;20170;-86
2022/09/30 15:02:57;;;;;;;3.77;1.50;;;;;;;;;;6277822;22;20177;-85
2022/09/30 15:05:26;;;;;;;2.80;1.50;;;;;;;;;;6275399;22;20180;-84
2022/09/30 15:07:54;;;;;;;8.07;1.30;;;;;;;;;;6245989;22;20586;-84
2022/09/30 15:10:23;;;;;;;2.40;1.00;;;;;;;;;;6218639;22;20189;-84
2022/09/30 15:12:51;;;;;;;6.40;1.50;;;;;;;;;;6273250;22;20261;-86
2022/09/30 15:15:27;;;;;;;3.27;1.20;;;;;;;;;;6273692;22;20200;-85
2022/09/30 15:17:55;;;;;;;2.43;1.40;;;;;;;;;;6273326;22;20193;-85
2022/09/30 15:20:32;;;;;;;3.70;1.53;;;;;;;;;;6271030;22;20174;-84
2022/09/30 15:23:02;;;;;;;3.37;1.30;;;;;;;;;;6248539;22;20260;-84
2022/09/30 15:25:30;;;;;;;34.27;3.57;;;;;;;;;;6274550;22;20174;-85
2022/09/30 15:27:57;;;;;;;8.87;1.60;;;;;;;;;;6274426;22;20277;-85
2022/09/30 15:30:27;;;;;;;7.03;1.60;;;;;;;;;;6251115;22;20216;-85
2022/09/30 15:33:22;;;;;;;11.70;2.40;;;;;;;;;;6279302;22;20209;-85
2022/09/30 15:35:53;;;;;;;3.70;1.30;;;;;;;;;;6276904;22;20189;-84